sensor_id;sensor_type;location;lat;lon;timestamp;pressure;altitude;pressure_sealevel;temperature;humidity
18697;BME280;22617;43.690;27.956;2023-02-10T00:01:03;101129.22;;;-8.22;75.90
18697;BME280;22617;43.690;27.956;2023-02-10T00:06:09;101128.69;;;-8.11;75.89
18697;BME280;22617;43.690;27.956;2023-02-10T00:11:14;101127.13;;;-7.93;76.15
18697;BME280;22617;43.690;27.956;2023-02-10T00:16:18;101122.63;;;-7.96;76.30
18697;BME280;22617;43.690;27.956;2023-02-10T00:21:23;101119.84;;;-7.90;76.61
18697;BME280;22617;43.690;27.956;2023-02-10T00:26:26;101107.66;;;-7.85;76.93
18697;BME280;22617;43.690;27.956;2023-02-10T00:31:30;101109.47;;;-7.84;76.55
18697;BME280;22617;43.690;27.956;2023-02-10T00:36:35;101104.66;;;-7.90;76.00
18697;BME280;22617;43.690;27.956;2023-02-10T00:41:39;101094.22;;;-8.02;75.81
18697;BME280;22617;43.690;27.956;2023-02-10T00:46:43;101107.59;;;-8.03;75.81
18697;BME280;22617;43.690;27.956;2023-02-10T00:51:48;101098.38;;;-8.02;75.47
18697;BME280;22617;43.690;27.956;2023-02-10T00:56:52;101096.28;;;-8.06;75.46
18697;BME280;22617;43.690;27.956;2023-02-10T01:01:58;101100.97;;;-8.18;75.38
18697;BME280;22617;43.690;27.956;2023-02-10T01:07:03;101097.78;;;-8.24;75.62
18697;BME280;22617;43.690;27.956;2023-02-10T01:12:09;101091.53;;;-8.27;76.06
18697;BME280;22617;43.690;27.956;2023-02-10T01:17:12;101094.63;;;-8.39;76.48
18697;BME280;22617;43.690;27.956;2023-02-10T01:22:19;101087.88;;;-8.47;76.78
18697;BME280;22617;43.690;27.956;2023-02-10T01:27:22;101074.84;;;-8.58;77.30
18697;BME280;22617;43.690;27.956;2023-02-10T01:32:28;101069.41;;;-8.54;77.07
18697;BME280;22617;43.690;27.956;2023-02-10T01:37:34;101071.28;;;-8.60;77.03
18697;BME280;22617;43.690;27.956;2023-02-10T01:42:39;101067.97;;;-8.68;76.81
18697;BME280;22617;43.690;27.956;2023-02-10T01:47:45;101069.91;;;-8.65;76.93
18697;BME280;22617;43.690;27.956;2023-02-10T01:52:52;101073.78;;;-8.69;76.36
18697;BME280;22617;43.690;27.956;2023-02-10T01:57:56;101076.63;;;-8.82;76.02
18697;BME280;22617;43.690;27.956;2023-02-10T02:03:01;101066.41;;;-9.14;75.24
18697;BME280;22617;43.690;27.956;2023-02-10T02:08:09;101059.91;;;-9.12;75.17
18697;BME280;22617;43.690;27.956;2023-02-10T02:13:23;101061.25;;;-8.92;75.33
18697;BME280;22617;43.690;27.956;2023-02-10T02:18:35;101058.63;;;-8.85;75.97
18697;BME280;22617;43.690;27.956;2023-02-10T02:23:59;101054.50;;;-8.84;75.48
18697;BME280;22617;43.690;27.956;2023-02-10T02:29:26;101048.59;;;-8.76;75.74
18697;BME280;22617;43.690;27.956;2023-02-10T02:34:39;101054.84;;;-8.72;75.43
18697;BME280;22617;43.690;27.956;2023-02-10T02:39:47;101054.47;;;-8.68;75.41
18697;BME280;22617;43.690;27.956;2023-02-10T02:44:54;101057.16;;;-8.58;75.40
18697;BME280;22617;43.690;27.956;2023-02-10T02:50:17;101055.50;;;-8.42;75.48
18697;BME280;22617;43.690;27.956;2023-02-10T02:55:31;101059.66;;;-8.43;74.92
18697;BME280;22617;43.690;27.956;2023-02-10T03:00:40;101044.03;;;-8.47;75.50
18697;BME280;22617;43.690;27.956;2023-02-10T03:05:47;101040.16;;;-8.68;75.37
18697;BME280;22617;43.690;27.956;2023-02-10T03:10:50;101040.75;;;-8.70;75.43
18697;BME280;22617;43.690;27.956;2023-02-10T03:15:54;101032.28;;;-8.71;75.28
18697;BME280;22617;43.690;27.956;2023-02-10T03:20:59;101031.63;;;-8.77;75.74
18697;BME280;22617;43.690;27.956;2023-02-10T03:26:03;101024.47;;;-8.81;75.68
18697;BME280;22617;43.690;27.956;2023-02-10T03:31:07;101016.44;;;-8.86;75.91
18697;BME280;22617;43.690;27.956;2023-02-10T03:36:13;101005.16;;;-8.80;76.22
18697;BME280;22617;43.690;27.956;2023-02-10T03:41:16;101007.94;;;-8.86;76.03
18697;BME280;22617;43.690;27.956;2023-02-10T03:46:20;101002.47;;;-8.82;76.31
18697;BME280;22617;43.690;27.956;2023-02-10T03:51:26;101009.75;;;-8.85;76.27
18697;BME280;22617;43.690;27.956;2023-02-10T03:56:29;101005.47;;;-8.77;76.05
18697;BME280;22617;43.690;27.956;2023-02-10T04:01:33;101001.50;;;-8.75;75.58
18697;BME280;22617;43.690;27.956;2023-02-10T04:06:39;101000.38;;;-8.86;75.39
18697;BME280;22617;43.690;27.956;2023-02-10T04:11:42;100997.91;;;-9.02;75.13
18697;BME280;22617;43.690;27.956;2023-02-10T04:16:45;100994.97;;;-8.98;75.46
18697;BME280;22617;43.690;27.956;2023-02-10T04:21:50;100981.47;;;-9.14;74.34
18697;BME280;22617;43.690;27.956;2023-02-10T04:26:54;100986.22;;;-9.17;74.17
18697;BME280;22617;43.690;27.956;2023-02-10T04:31:57;100988.00;;;-9.16;73.52
18697;BME280;22617;43.690;27.956;2023-02-10T04:37:02;100987.94;;;-9.00;73.20
18697;BME280;22617;43.690;27.956;2023-02-10T04:42:06;100990.31;;;-9.26;71.80
18697;BME280;22617;43.690;27.956;2023-02-10T04:47:09;100984.44;;;-9.49;71.73
18697;BME280;22617;43.690;27.956;2023-02-10T04:52:17;100985.34;;;-9.49;72.02
18697;BME280;22617;43.690;27.956;2023-02-10T04:57:20;100982.31;;;-9.53;72.17
18697;BME280;22617;43.690;27.956;2023-02-10T05:02:24;100981.53;;;-9.45;72.36
18697;BME280;22617;43.690;27.956;2023-02-10T05:07:28;100980.59;;;-9.30;72.36
18697;BME280;22617;43.690;27.956;2023-02-10T05:12:35;100983.69;;;-9.33;71.66
18697;BME280;22617;43.690;27.956;2023-02-10T05:17:39;100988.28;;;-9.53;71.02
18697;BME280;22617;43.690;27.956;2023-02-10T05:22:44;100994.94;;;-9.38;71.40
18697;BME280;22617;43.690;27.956;2023-02-10T05:27:48;100999.63;;;-9.25;70.98
18697;BME280;22617;43.690;27.956;2023-02-10T05:32:53;101001.19;;;-9.34;70.48
18697;BME280;22617;43.690;27.956;2023-02-10T05:37:58;101001.34;;;-9.17;70.66
18697;BME280;22617;43.690;27.956;2023-02-10T05:43:06;101003.69;;;-9.03;70.97
18697;BME280;22617;43.690;27.956;2023-02-10T05:48:12;101005.47;;;-8.77;71.44
18697;BME280;22617;43.690;27.956;2023-02-10T05:53:17;101015.75;;;-8.76;72.66
18697;BME280;22617;43.690;27.956;2023-02-10T05:58:26;101011.28;;;-8.54;73.88
18697;BME280;22617;43.690;27.956;2023-02-10T06:03:31;101024.47;;;-8.32;74.55
18697;BME280;22617;43.690;27.956;2023-02-10T06:08:36;101013.13;;;-7.95;74.13
18697;BME280;22617;43.690;27.956;2023-02-10T06:13:43;101019.00;;;-7.70;73.90
18697;BME280;22617;43.690;27.956;2023-02-10T06:18:51;101009.22;;;-7.32;73.20
18697;BME280;22617;43.690;27.956;2023-02-10T06:23:56;101008.31;;;-6.90;72.46
18697;BME280;22617;43.690;27.956;2023-02-10T06:28:59;101011.31;;;-6.77;70.99
18697;BME280;22617;43.690;27.956;2023-02-10T06:34:03;101003.34;;;-6.54;71.60
18697;BME280;22617;43.690;27.956;2023-02-10T06:39:11;101020.41;;;-6.26;70.83
18697;BME280;22617;43.690;27.956;2023-02-10T06:44:14;101011.88;;;-6.18;70.35
18697;BME280;22617;43.690;27.956;2023-02-10T06:49:17;101016.97;;;-5.63;70.65
18697;BME280;22617;43.690;27.956;2023-02-10T06:54:23;101022.41;;;-5.50;69.52
18697;BME280;22617;43.690;27.956;2023-02-10T06:59:26;101012.66;;;-5.27;68.92
18697;BME280;22617;43.690;27.956;2023-02-10T07:04:31;101008.38;;;-5.09;68.43
18697;BME280;22617;43.690;27.956;2023-02-10T07:09:36;101019.94;;;-4.84;67.97
18697;BME280;22617;43.690;27.956;2023-02-10T07:14:40;101024.53;;;-4.79;67.71
18697;BME280;22617;43.690;27.956;2023-02-10T07:19:46;101012.88;;;-4.96;69.21
18697;BME280;22617;43.690;27.956;2023-02-10T07:24:52;101022.63;;;-4.82;69.20
18697;BME280;22617;43.690;27.956;2023-02-10T07:29:56;101029.38;;;-4.54;68.04
18697;BME280;22617;43.690;27.956;2023-02-10T07:34:59;101039.72;;;-4.71;68.32
18697;BME280;22617;43.690;27.956;2023-02-10T07:40:06;101029.72;;;-4.30;69.67
18697;BME280;22617;43.690;27.956;2023-02-10T07:45:13;101031.72;;;-3.98;67.61
18697;BME280;22617;43.690;27.956;2023-02-10T07:50:16;101022.97;;;-3.91;66.83
18697;BME280;22617;43.690;27.956;2023-02-10T07:55:21;101027.72;;;-3.65;66.42
18697;BME280;22617;43.690;27.956;2023-02-10T08:00:24;101034.38;;;-3.47;66.60
18697;BME280;22617;43.690;27.956;2023-02-10T08:05:28;101020.06;;;-3.35;66.61
18697;BME280;22617;43.690;27.956;2023-02-10T08:10:33;101019.03;;;-2.96;65.38
18697;BME280;22617;43.690;27.956;2023-02-10T08:15:37;101017.53;;;-3.25;65.81
18697;BME280;22617;43.690;27.956;2023-02-10T08:20:40;101015.09;;;-3.03;65.93
18697;BME280;22617;43.690;27.956;2023-02-10T08:25:48;101015.88;;;-2.30;64.49
18697;BME280;22617;43.690;27.956;2023-02-10T08:30:53;101020.69;;;-2.01;64.17
18697;BME280;22617;43.690;27.956;2023-02-10T08:35:57;101015.84;;;-1.43;62.61
18697;BME280;22617;43.690;27.956;2023-02-10T08:41:02;101018.06;;;-1.48;61.64
18697;BME280;22617;43.690;27.956;2023-02-10T08:46:05;101024.53;;;-1.41;62.06
18697;BME280;22617;43.690;27.956;2023-02-10T08:51:16;101028.09;;;-1.39;61.26
18697;BME280;22617;43.690;27.956;2023-02-10T08:56:24;101031.75;;;-1.02;60.91
18697;BME280;22617;43.690;27.956;2023-02-10T09:01:28;101030.41;;;-0.27;59.86
18697;BME280;22617;43.690;27.956;2023-02-10T09:06:34;101018.75;;;0.01;59.45
18697;BME280;22617;43.690;27.956;2023-02-10T09:11:43;101009.78;;;1.20;58.64
18697;BME280;22617;43.690;27.956;2023-02-10T09:16:46;101003.75;;;1.19;58.18
18697;BME280;22617;43.690;27.956;2023-02-10T09:21:50;101005.81;;;1.51;58.62
18697;BME280;22617;43.690;27.956;2023-02-10T09:26:55;101003.19;;;1.91;57.39
18697;BME280;22617;43.690;27.956;2023-02-10T09:31:58;100986.09;;;2.19;56.50
18697;BME280;22617;43.690;27.956;2023-02-10T09:37:03;100979.56;;;2.81;56.02
18697;BME280;22617;43.690;27.956;2023-02-10T09:42:16;100972.00;;;2.70;56.77
18697;BME280;22617;43.690;27.956;2023-02-10T09:47:35;100977.63;;;2.92;54.58
18697;BME280;22617;43.690;27.956;2023-02-10T09:52:53;100956.00;;;3.81;53.85
18697;BME280;22617;43.690;27.956;2023-02-10T09:58:13;100950.59;;;3.76;51.97
18697;BME280;22617;43.690;27.956;2023-02-10T10:03:23;100938.78;;;4.28;52.05
18697;BME280;22617;43.690;27.956;2023-02-10T10:08:34;100932.97;;;4.82;51.40
18697;BME280;22617;43.690;27.956;2023-02-10T10:13:44;100931.34;;;4.34;52.28
18697;BME280;22617;43.690;27.956;2023-02-10T10:18:57;100929.47;;;5.70;49.83
18697;BME280;22617;43.690;27.956;2023-02-10T10:24:17;100917.41;;;5.89;48.44
18697;BME280;22617;43.690;27.956;2023-02-10T10:29:36;100911.69;;;6.15;47.95
18697;BME280;22617;43.690;27.956;2023-02-10T10:34:48;100913.69;;;5.47;48.11
18697;BME280;22617;43.690;27.956;2023-02-10T10:39:57;100908.25;;;5.41;46.41
18697;BME280;22617;43.690;27.956;2023-02-10T10:45:11;100902.69;;;4.80;46.21
18697;BME280;22617;43.690;27.956;2023-02-10T10:50:18;100901.84;;;5.52;45.29
18697;BME280;22617;43.690;27.956;2023-02-10T10:55:24;100896.28;;;5.80;46.69
18697;BME280;22617;43.690;27.956;2023-02-10T11:00:31;100888.06;;;5.51;47.03
18697;BME280;22617;43.690;27.956;2023-02-10T11:05:36;100876.59;;;6.41;46.13
18697;BME280;22617;43.690;27.956;2023-02-10T11:10:50;100871.09;;;6.54;46.01
18697;BME280;22617;43.690;27.956;2023-02-10T11:16:01;100874.09;;;5.67;46.54
18697;BME280;22617;43.690;27.956;2023-02-10T11:21:08;100866.94;;;6.18;46.11
18697;BME280;22617;43.690;27.956;2023-02-10T11:26:17;100860.38;;;5.13;46.75
18697;BME280;22617;43.690;27.956;2023-02-10T11:31:27;100852.03;;;5.19;47.05
18697;BME280;22617;43.690;27.956;2023-02-10T11:36:35;100855.97;;;5.48;45.39
18697;BME280;22617;43.690;27.956;2023-02-10T11:41:40;100847.28;;;5.46;45.62
18697;BME280;22617;43.690;27.956;2023-02-10T11:46:54;100843.63;;;5.79;45.17
18697;BME280;22617;43.690;27.956;2023-02-10T11:52:00;100825.72;;;6.22;45.63
18697;BME280;22617;43.690;27.956;2023-02-10T11:57:24;100830.41;;;6.31;45.99
18697;BME280;22617;43.690;27.956;2023-02-10T12:03:06;100832.28;;;5.39;47.26
18697;BME280;22617;43.690;27.956;2023-02-10T12:08:23;100831.44;;;5.57;47.34
18697;BME280;22617;43.690;27.956;2023-02-10T12:13:32;100829.63;;;6.12;47.24
18697;BME280;22617;43.690;27.956;2023-02-10T12:18:52;100823.94;;;6.21;46.27
18697;BME280;22617;43.690;27.956;2023-02-10T12:24:06;100820.75;;;6.47;47.59
18697;BME280;22617;43.690;27.956;2023-02-10T12:29:21;100822.38;;;6.45;46.07
18697;BME280;22617;43.690;27.956;2023-02-10T12:34:56;100819.97;;;5.33;48.50
18697;BME280;22617;43.690;27.956;2023-02-10T12:40:31;100819.38;;;5.39;47.09
18697;BME280;22617;43.690;27.956;2023-02-10T12:45:44;100831.41;;;5.38;48.99
18697;BME280;22617;43.690;27.956;2023-02-10T12:51:03;100831.19;;;5.70;48.01
18697;BME280;22617;43.690;27.956;2023-02-10T12:56:17;100823.09;;;5.26;49.63
18697;BME280;22617;43.690;27.956;2023-02-10T13:01:26;100821.06;;;5.01;49.18
18697;BME280;22617;43.690;27.956;2023-02-10T13:06:36;100817.78;;;4.34;50.59
18697;BME280;22617;43.690;27.956;2023-02-10T13:11:43;100812.31;;;4.46;49.99
18697;BME280;22617;43.690;27.956;2023-02-10T13:16:53;100815.69;;;3.61;51.25
18697;BME280;22617;43.690;27.956;2023-02-10T13:22:04;100812.72;;;3.37;52.21
18697;BME280;22617;43.690;27.956;2023-02-10T13:27:19;100806.78;;;3.55;52.31
18697;BME280;22617;43.690;27.956;2023-02-10T13:32:34;100802.91;;;3.30;51.63
18697;BME280;22617;43.690;27.956;2023-02-10T13:37:44;100800.03;;;3.10;53.08
18697;BME280;22617;43.690;27.956;2023-02-10T13:42:52;100790.31;;;3.36;52.53
18697;BME280;22617;43.690;27.956;2023-02-10T13:48:00;100780.28;;;2.94;51.72
18697;BME280;22617;43.690;27.956;2023-02-10T13:53:27;100784.25;;;2.73;52.94
18697;BME280;22617;43.690;27.956;2023-02-10T13:58:33;100788.16;;;3.12;52.27
18697;BME280;22617;43.690;27.956;2023-02-10T14:03:37;100777.78;;;2.95;53.27
18697;BME280;22617;43.690;27.956;2023-02-10T14:08:43;100779.41;;;2.62;52.35
18697;BME280;22617;43.690;27.956;2023-02-10T14:14:03;100784.66;;;2.49;52.84
18697;BME280;22617;43.690;27.956;2023-02-10T14:19:21;100786.31;;;2.63;52.67
18697;BME280;22617;43.690;27.956;2023-02-10T14:24:28;100784.59;;;2.33;52.88
18697;BME280;22617;43.690;27.956;2023-02-10T14:29:51;100784.94;;;2.25;53.53
18697;BME280;22617;43.690;27.956;2023-02-10T14:34:58;100787.78;;;2.00;53.22
18697;BME280;22617;43.690;27.956;2023-02-10T14:40:04;100794.16;;;1.92;53.82
18697;BME280;22617;43.690;27.956;2023-02-10T14:45:17;100798.97;;;2.00;53.34
18697;BME280;22617;43.690;27.956;2023-02-10T14:50:23;100802.28;;;1.85;54.25
18697;BME280;22617;43.690;27.956;2023-02-10T14:55:30;100796.13;;;1.68;55.44
18697;BME280;22617;43.690;27.956;2023-02-10T15:00:35;100806.63;;;1.43;55.06
18697;BME280;22617;43.690;27.956;2023-02-10T15:05:45;100801.28;;;1.40;56.49
18697;BME280;22617;43.690;27.956;2023-02-10T15:10:53;100798.00;;;1.28;57.33
18697;BME280;22617;43.690;27.956;2023-02-10T15:15:58;100796.31;;;1.15;57.50
18697;BME280;22617;43.690;27.956;2023-02-10T15:21:05;100804.66;;;0.98;58.61
18697;BME280;22617;43.690;27.956;2023-02-10T15:26:18;100810.41;;;0.94;59.54
18697;BME280;22617;43.690;27.956;2023-02-10T15:31:25;100811.19;;;0.93;60.04
18697;BME280;22617;43.690;27.956;2023-02-10T15:36:29;100802.44;;;0.63;59.35
18697;BME280;22617;43.690;27.956;2023-02-10T15:41:41;100799.47;;;0.44;59.98
18697;BME280;22617;43.690;27.956;2023-02-10T15:46:47;100804.34;;;0.02;59.99
18697;BME280;22617;43.690;27.956;2023-02-10T15:51:53;100812.22;;;-0.09;60.73
18697;BME280;22617;43.690;27.956;2023-02-10T15:57:00;100818.81;;;-0.12;61.36
18697;BME280;22617;43.690;27.956;2023-02-10T16:02:06;100824.72;;;-0.38;62.54
18697;BME280;22617;43.690;27.956;2023-02-10T16:07:14;100846.22;;;-0.36;62.93
18697;BME280;22617;43.690;27.956;2023-02-10T16:12:20;100851.94;;;-0.52;63.50
18697;BME280;22617;43.690;27.956;2023-02-10T16:17:27;100845.75;;;-0.67;64.17
18697;BME280;22617;43.690;27.956;2023-02-10T16:22:31;100853.28;;;-0.93;63.83
18697;BME280;22617;43.690;27.956;2023-02-10T16:27:36;100853.97;;;-1.42;64.31
18697;BME280;22617;43.690;27.956;2023-02-10T16:32:39;100856.66;;;-1.64;65.26
18697;BME280;22617;43.690;27.956;2023-02-10T16:37:43;100855.59;;;-1.89;65.60
18697;BME280;22617;43.690;27.956;2023-02-10T16:42:48;100849.06;;;-2.19;66.60
18697;BME280;22617;43.690;27.956;2023-02-10T16:47:54;100845.63;;;-2.20;67.33
18697;BME280;22617;43.690;27.956;2023-02-10T16:52:59;100851.16;;;-2.25;66.96
18697;BME280;22617;43.690;27.956;2023-02-10T16:58:04;100853.31;;;-2.41;66.60
18697;BME280;22617;43.690;27.956;2023-02-10T17:03:08;100849.59;;;-2.56;67.28
18697;BME280;22617;43.690;27.956;2023-02-10T17:08:12;100854.72;;;-2.78;66.80
18697;BME280;22617;43.690;27.956;2023-02-10T17:13:17;100861.09;;;-2.83;67.27
18697;BME280;22617;43.690;27.956;2023-02-10T17:18:21;100857.41;;;-2.87;67.63
18697;BME280;22617;43.690;27.956;2023-02-10T17:23:24;100853.81;;;-3.11;68.10
18697;BME280;22617;43.690;27.956;2023-02-10T17:28:29;100853.00;;;-2.99;68.58
18697;BME280;22617;43.690;27.956;2023-02-10T17:33:32;100859.31;;;-2.84;67.82
18697;BME280;22617;43.690;27.956;2023-02-10T17:38:36;100849.28;;;-2.93;66.72
18697;BME280;22617;43.690;27.956;2023-02-10T17:43:58;100849.44;;;-3.01;66.82
18697;BME280;22617;43.690;27.956;2023-02-10T17:49:02;100856.28;;;-3.22;67.01
18697;BME280;22617;43.690;27.956;2023-02-10T17:54:05;100843.03;;;-3.28;66.94
18697;BME280;22617;43.690;27.956;2023-02-10T17:59:11;100857.47;;;-3.39;66.64
18697;BME280;22617;43.690;27.956;2023-02-10T18:04:15;100860.22;;;-3.68;67.55
18697;BME280;22617;43.690;27.956;2023-02-10T18:09:18;100858.94;;;-3.83;66.98
18697;BME280;22617;43.690;27.956;2023-02-10T18:14:24;100858.84;;;-4.05;67.80
18697;BME280;22617;43.690;27.956;2023-02-10T18:19:28;100855.78;;;-4.21;67.94
18697;BME280;22617;43.690;27.956;2023-02-10T18:24:32;100855.00;;;-4.40;67.53
18697;BME280;22617;43.690;27.956;2023-02-10T18:29:37;100861.34;;;-4.45;68.69
18697;BME280;22617;43.690;27.956;2023-02-10T18:34:43;100861.72;;;-4.71;68.19
18697;BME280;22617;43.690;27.956;2023-02-10T18:39:48;100872.81;;;-4.89;69.35
18697;BME280;22617;43.690;27.956;2023-02-10T18:44:58;100861.72;;;-4.71;69.28
18697;BME280;22617;43.690;27.956;2023-02-10T18:50:02;100867.56;;;-4.62;68.87
18697;BME280;22617;43.690;27.956;2023-02-10T18:55:07;100863.56;;;-4.78;68.42
18697;BME280;22617;43.690;27.956;2023-02-10T19:00:13;100847.78;;;-4.95;67.82
18697;BME280;22617;43.690;27.956;2023-02-10T19:05:17;100851.22;;;-4.94;68.09
18697;BME280;22617;43.690;27.956;2023-02-10T19:10:21;100852.81;;;-5.05;67.57
18697;BME280;22617;43.690;27.956;2023-02-10T19:15:26;100864.13;;;-5.30;68.60
18697;BME280;22617;43.690;27.956;2023-02-10T19:20:30;100865.19;;;-5.28;68.31
18697;BME280;22617;43.690;27.956;2023-02-10T19:25:36;100864.19;;;-5.20;69.11
18697;BME280;22617;43.690;27.956;2023-02-10T19:30:41;100857.38;;;-5.11;68.44
18697;BME280;22617;43.690;27.956;2023-02-10T19:35:46;100854.41;;;-5.44;67.97
18697;BME280;22617;43.690;27.956;2023-02-10T19:41:01;100851.50;;;-5.86;68.64
18697;BME280;22617;43.690;27.956;2023-02-10T19:46:06;100850.97;;;-5.92;69.63
18697;BME280;22617;43.690;27.956;2023-02-10T19:51:14;100854.94;;;-5.86;70.41
18697;BME280;22617;43.690;27.956;2023-02-10T19:56:18;100856.09;;;-5.82;69.88
18697;BME280;22617;43.690;27.956;2023-02-10T20:01:23;100856.84;;;-5.83;69.34
18697;BME280;22617;43.690;27.956;2023-02-10T20:06:28;100855.31;;;-5.91;69.26
18697;BME280;22617;43.690;27.956;2023-02-10T20:11:32;100859.22;;;-5.85;68.95
18697;BME280;22617;43.690;27.956;2023-02-10T20:16:38;100848.34;;;-6.02;69.02
18697;BME280;22617;43.690;27.956;2023-02-10T20:21:42;100842.44;;;-6.11;68.99
18697;BME280;22617;43.690;27.956;2023-02-10T20:26:46;100863.19;;;-6.34;68.84
18697;BME280;22617;43.690;27.956;2023-02-10T20:31:51;100852.47;;;-6.40;68.76
18697;BME280;22617;43.690;27.956;2023-02-10T20:36:55;100854.22;;;-6.58;68.70
18697;BME280;22617;43.690;27.956;2023-02-10T20:42:00;100837.22;;;-6.86;69.56
18697;BME280;22617;43.690;27.956;2023-02-10T20:47:04;100839.38;;;-6.81;70.82
18697;BME280;22617;43.690;27.956;2023-02-10T20:52:09;100846.31;;;-6.61;71.40
18697;BME280;22617;43.690;27.956;2023-02-10T20:57:13;100845.66;;;-6.50;70.86
18697;BME280;22617;43.690;27.956;2023-02-10T21:02:18;100856.38;;;-6.44;70.17
18697;BME280;22617;43.690;27.956;2023-02-10T21:07:21;100861.25;;;-6.64;70.11
18697;BME280;22617;43.690;27.956;2023-02-10T21:12:25;100867.03;;;-6.56;70.07
18697;BME280;22617;43.690;27.956;2023-02-10T21:17:30;100861.53;;;-6.61;70.00
18697;BME280;22617;43.690;27.956;2023-02-10T21:22:33;100864.22;;;-6.59;68.94
18697;BME280;22617;43.690;27.956;2023-02-10T21:27:37;100860.00;;;-6.50;68.95
18697;BME280;22617;43.690;27.956;2023-02-10T21:32:43;100863.88;;;-6.27;69.26
18697;BME280;22617;43.690;27.956;2023-02-10T21:37:47;100867.19;;;-6.09;69.35
18697;BME280;22617;43.690;27.956;2023-02-10T21:42:50;100866.84;;;-5.85;69.78
18697;BME280;22617;43.690;27.956;2023-02-10T21:47:56;100874.41;;;-5.76;70.20
18697;BME280;22617;43.690;27.956;2023-02-10T21:53:00;100862.72;;;-5.74;70.79
18697;BME280;22617;43.690;27.956;2023-02-10T21:58:04;100868.38;;;-5.68;71.39
18697;BME280;22617;43.690;27.956;2023-02-10T22:03:09;100869.19;;;-5.59;71.84
18697;BME280;22617;43.690;27.956;2023-02-10T22:08:12;100875.66;;;-5.62;71.87
18697;BME280;22617;43.690;27.956;2023-02-10T22:13:16;100873.59;;;-5.48;72.10
18697;BME280;22617;43.690;27.956;2023-02-10T22:18:21;100867.31;;;-5.51;72.33
18697;BME280;22617;43.690;27.956;2023-02-10T22:23:24;100864.16;;;-5.49;72.40
18697;BME280;22617;43.690;27.956;2023-02-10T22:28:28;100855.47;;;-5.42;72.64
18697;BME280;22617;43.690;27.956;2023-02-10T22:33:33;100839.09;;;-5.36;72.53
18697;BME280;22617;43.690;27.956;2023-02-10T22:38:38;100839.56;;;-5.40;72.39
18697;BME280;22617;43.690;27.956;2023-02-10T22:43:42;100833.91;;;-5.27;72.98
18697;BME280;22617;43.690;27.956;2023-02-10T22:48:49;100830.97;;;-5.32;72.68
18697;BME280;22617;43.690;27.956;2023-02-10T22:53:54;100824.88;;;-5.34;72.56
18697;BME280;22617;43.690;27.956;2023-02-10T22:58:58;100815.31;;;-5.36;72.64
18697;BME280;22617;43.690;27.956;2023-02-10T23:04:06;100805.31;;;-5.35;73.31
18697;BME280;22617;43.690;27.956;2023-02-10T23:09:12;100808.06;;;-5.42;72.50
18697;BME280;22617;43.690;27.956;2023-02-10T23:14:16;100802.97;;;-5.42;73.21
18697;BME280;22617;43.690;27.956;2023-02-10T23:19:23;100790.78;;;-5.46;72.98
18697;BME280;22617;43.690;27.956;2023-02-10T23:24:28;100796.13;;;-5.43;72.93
18697;BME280;22617;43.690;27.956;2023-02-10T23:29:31;100782.25;;;-5.56;73.22
18697;BME280;22617;43.690;27.956;2023-02-10T23:34:36;100785.38;;;-5.59;73.20
18697;BME280;22617;43.690;27.956;2023-02-10T23:39:39;100788.56;;;-5.61;72.93
18697;BME280;22617;43.690;27.956;2023-02-10T23:44:43;100792.25;;;-5.58;73.29
18697;BME280;22617;43.690;27.956;2023-02-10T23:49:50;100787.66;;;-5.62;72.88
18697;BME280;22617;43.690;27.956;2023-02-10T23:54:53;100786.38;;;-5.67;72.64
18697;BME280;22617;43.690;27.956;2023-02-10T23:59:57;100786.47;;;-5.65;72.97
